Time;durP1;ratioP1;P1;durP2;ratioP2;P2;SDS_P1;SDS_P2;PMS_P1;PMS_P2;Temp;Humidity;BMP_temperature;BMP_pressure;BME280_temperature;BME280_humidity;BME280_pressure;Samples;Min_cycle;Max_cycle;Signal;HPM_P1;HPM_P2
2023/04/17 00:02:02;;;;;;;3.53;2.10;;;9.50;84.50;;;;;;5112804;28;20546;-69
2023/04/17 00:04:29;;;;;;;4.78;2.22;;;9.60;84.60;;;;;;5112725;28;20044;-69
2023/04/17 00:06:55;;;;;;;3.95;2.10;;;9.50;84.60;;;;;;5112802;28;20485;-69
2023/04/17 00:09:21;;;;;;;4.43;2.42;;;9.50;84.70;;;;;;5112780;28;20135;-69
2023/04/17 00:11:46;;;;;;;3.80;2.28;;;9.40;84.60;;;;;;5112775;28;20058;-69
2023/04/17 00:14:12;;;;;;;3.70;2.10;;;9.50;84.70;;;;;;5113109;28;20118;-69
2023/04/17 00:16:38;;;;;;;4.05;2.35;;;9.40;85.30;;;;;;5112819;28;20043;-69
2023/04/17 00:19:04;;;;;;;3.92;2.20;;;9.40;84.70;;;;;;5112599;28;20070;-69
2023/04/17 00:21:30;;;;;;;2.90;1.85;;;9.50;84.80;;;;;;5112845;28;20097;-69
2023/04/17 00:23:57;;;;;;;3.90;1.90;;;9.50;84.70;;;;;;5112409;28;20043;-69
2023/04/17 00:26:23;;;;;;;4.72;2.38;;;9.50;84.80;;;;;;5112428;28;20047;-70
2023/04/17 00:28:50;;;;;;;3.72;1.88;;;9.40;84.70;;;;;;5093499;28;20028;-69
2023/04/17 00:31:16;;;;;;;3.33;1.90;;;9.40;85.30;;;;;;5059865;28;20051;-69
2023/04/17 00:33:42;;;;;;;2.45;1.67;;;9.40;84.80;;;;;;5092287;28;20458;-69
2023/04/17 00:36:08;;;;;;;3.08;1.95;;;9.40;84.80;;;;;;5112257;28;20412;-70
2023/04/17 00:38:34;;;;;;;3.30;1.88;;;9.40;84.80;;;;;;5112541;28;20040;-70
2023/04/17 00:41:00;;;;;;;2.72;1.70;;;9.40;84.70;;;;;;5112404;28;20050;-69
2023/04/17 00:43:25;;;;;;;4.15;2.05;;;9.40;84.70;;;;;;5112336;28;20482;-69
2023/04/17 00:45:53;;;;;;;3.80;2.00;;;9.40;84.70;;;;;;5112538;28;20059;-69
2023/04/17 00:48:19;;;;;;;3.17;1.90;;;9.30;84.80;;;;;;5112255;28;20070;-69
2023/04/17 00:50:46;;;;;;;3.22;1.67;;;9.40;84.80;;;;;;5112210;28;20050;-69
2023/04/17 00:53:13;;;;;;;4.05;2.00;;;9.30;84.80;;;;;;5113018;28;20419;-69
2023/04/17 00:55:41;;;;;;;3.85;1.83;;;9.30;84.80;;;;;;5116311;28;20047;-69
2023/04/17 00:58:08;;;;;;;3.28;1.98;;;9.30;84.80;;;;;;5115735;28;20050;-69
2023/04/17 01:00:34;;;;;;;3.65;2.03;;;9.30;84.90;;;;;;5096060;28;20036;-69
2023/04/17 01:03:00;;;;;;;3.55;2.00;;;9.30;84.90;;;;;;5097410;28;20084;-69
2023/04/17 01:05:27;;;;;;;5.40;2.72;;;9.30;84.90;;;;;;5115771;28;20032;-69
2023/04/17 01:07:55;;;;;;;4.45;2.60;;;9.30;85.60;;;;;;5115750;28;20035;-69
2023/04/17 01:10:20;;;;;;;3.50;2.00;;;9.30;84.90;;;;;;5116002;28;20507;-70
2023/04/17 01:12:48;;;;;;;4.22;2.30;;;9.30;84.90;;;;;;5115557;28;20036;-69
2023/04/17 01:15:14;;;;;;;3.75;2.10;;;9.20;84.90;;;;;;5115555;28;20036;-70
2023/04/17 01:17:40;;;;;;;2.90;1.70;;;9.30;85.00;;;;;;5115945;28;20028;-69
2023/04/17 01:20:09;;;;;;;2.50;1.63;;;9.20;84.90;;;;;;5097086;28;20109;-70
2023/04/17 01:22:35;;;;;;;3.22;2.00;;;9.20;85.00;;;;;;5115766;28;20035;-70
2023/04/17 01:25:01;;;;;;;2.75;1.70;;;9.20;85.00;;;;;;5115827;28;20042;-69
2023/04/17 01:27:26;;;;;;;3.10;1.60;;;9.30;85.00;;;;;;5115681;28;20043;-69
2023/04/17 01:29:52;;;;;;;3.45;1.95;;;9.30;85.00;;;;;;5097026;28;20031;-69
2023/04/17 01:32:17;;;;;;;3.50;2.00;;;9.30;85.00;;;;;;5079291;28;20047;-69
2023/04/17 01:34:44;;;;;;;4.18;2.13;;;9.30;85.00;;;;;;5115802;28;20071;-70
2023/04/17 01:37:09;;;;;;;3.33;1.85;;;9.30;85.00;;;;;;5115181;28;20063;-69
2023/04/17 01:39:36;;;;;;;2.92;1.83;;;9.30;85.00;;;;;;5096245;28;20074;-69
2023/04/17 01:42:01;;;;;;;3.60;1.98;;;9.30;85.10;;;;;;5095393;28;20097;-69
2023/04/17 01:44:27;;;;;;;3.88;1.98;;;9.20;85.00;;;;;;5115141;28;20047;-70
2023/04/17 01:46:52;;;;;;;3.00;1.83;;;9.20;85.00;;;;;;5115489;28;20204;-70
2023/04/17 01:49:18;;;;;;;3.38;1.90;;;9.20;85.00;;;;;;5115051;28;20039;-70
2023/04/17 01:51:44;;;;;;;3.35;1.90;;;9.20;85.00;;;;;;5114964;28;20054;-69
2023/04/17 01:54:09;;;;;;;3.85;2.00;;;9.10;85.00;;;;;;5115006;28;20438;-69
2023/04/17 01:56:35;;;;;;;3.72;1.80;;;9.20;85.10;;;;;;5114794;28;20129;-70
2023/04/17 01:59:01;;;;;;;4.03;2.08;;;9.10;85.70;;;;;;5114650;28;20035;-69
2023/04/17 02:01:26;;;;;;;2.97;1.80;;;9.20;85.20;;;;;;5114778;28;20497;-69
2023/04/17 02:03:52;;;;;;;3.22;2.00;;;9.20;85.20;;;;;;5114930;28;20101;-70
2023/04/17 02:06:18;;;;;;;6.38;2.28;;;9.10;85.10;;;;;;5114057;28;20038;-69
2023/04/17 02:08:43;;;;;;;4.00;1.98;;;9.20;85.20;;;;;;5115212;28;20039;-69
2023/04/17 02:11:09;;;;;;;3.65;2.00;;;9.20;85.30;;;;;;5094971;28;20097;-69
2023/04/17 02:13:35;;;;;;;5.13;2.42;;;9.20;85.30;;;;;;5114686;28;20066;-69
2023/04/17 02:16:00;;;;;;;3.17;2.03;;;9.20;85.30;;;;;;5114642;28;20055;-69
2023/04/17 02:18:27;;;;;;;4.15;2.10;;;9.20;85.30;;;;;;5114571;28;20397;-69
2023/04/17 02:20:52;;;;;;;3.88;1.80;;;9.10;85.40;;;;;;5114390;28;20043;-69
2023/04/17 02:23:18;;;;;;;3.17;1.70;;;9.10;85.40;;;;;;5114539;28;20545;-69
2023/04/17 02:25:44;;;;;;;4.03;1.95;;;9.10;85.40;;;;;;5114372;28;20040;-69
2023/04/17 02:28:10;;;;;;;3.17;1.70;;;9.10;85.40;;;;;;5114444;28;20043;-69
2023/04/17 02:30:35;;;;;;;4.30;2.08;;;9.10;85.40;;;;;;5114331;28;20039;-69
2023/04/17 02:33:01;;;;;;;3.67;1.90;;;9.10;85.50;;;;;;5114146;28;20035;-69
2023/04/17 02:35:29;;;;;;;4.45;2.20;;;9.10;85.50;;;;;;5114394;28;20138;-69
2023/04/17 02:37:54;;;;;;;6.10;2.72;;;9.10;86.20;;;;;;5110030;28;20043;-69
2023/04/17 02:40:20;;;;;;;4.00;2.17;;;9.10;85.50;;;;;;5079166;28;20055;-69
2023/04/17 02:42:46;;;;;;;4.43;2.33;;;9.10;85.50;;;;;;5113911;28;20040;-70
2023/04/17 02:45:11;;;;;;;3.92;2.10;;;9.10;85.50;;;;;;5114228;28;20452;-69
2023/04/17 02:47:37;;;;;;;3.58;1.95;;;9.00;85.50;;;;;;5095295;28;20489;-69
2023/04/17 02:50:04;;;;;;;5.00;2.47;;;9.00;85.50;;;;;;5095191;28;20139;-69
2023/04/17 02:52:30;;;;;;;4.00;2.20;;;9.00;85.60;;;;;;5113968;28;20488;-69
2023/04/17 02:54:56;;;;;;;5.07;2.67;;;9.00;85.60;;;;;;5114294;28;20043;-69
2023/04/17 02:57:22;;;;;;;4.15;2.20;;;9.00;85.70;;;;;;5113971;28;20050;-69
2023/04/17 02:59:49;;;;;;;3.78;2.17;;;9.10;85.80;;;;;;5113834;28;20400;-69
2023/04/17 03:02:15;;;;;;;4.00;2.17;;;9.00;85.70;;;;;;5113652;28;20044;-69
2023/04/17 03:04:41;;;;;;;4.00;2.30;;;9.00;85.70;;;;;;5113707;28;20031;-69
2023/04/17 03:07:09;;;;;;;4.40;2.60;;;9.00;85.70;;;;;;5113764;28;20438;-69
2023/04/17 03:09:35;;;;;;;4.75;2.25;;;9.00;85.70;;;;;;5113608;28;20066;-69
2023/04/17 03:12:00;;;;;;;3.67;1.92;;;9.00;85.70;;;;;;5113610;28;20062;-69
2023/04/17 03:14:26;;;;;;;4.63;2.45;;;9.00;85.80;;;;;;5113671;28;20126;-69
2023/04/17 03:16:52;;;;;;;4.50;2.50;;;8.90;85.70;;;;;;5113959;28;20048;-69
2023/04/17 03:19:17;;;;;;;3.42;2.00;;;8.90;85.90;;;;;;5113584;28;20088;-69
2023/04/17 03:21:43;;;;;;;3.78;1.88;;;8.90;85.80;;;;;;5113844;28;20070;-70
2023/04/17 03:24:10;;;;;;;2.78;1.70;;;8.90;85.80;;;;;;5113801;28;20499;-69
2023/04/17 03:26:36;;;;;;;3.67;1.90;;;8.90;85.90;;;;;;5113427;28;20050;-69
2023/04/17 03:29:01;;;;;;;3.50;1.73;;;8.90;85.90;;;;;;5113849;28;20031;-69
2023/04/17 03:31:27;;;;;;;2.97;1.70;;;8.90;85.90;;;;;;5113329;28;20032;-69
2023/04/17 03:33:53;;;;;;;2.55;1.55;;;8.90;85.90;;;;;;5095073;28;20075;-69
2023/04/17 03:36:18;;;;;;;3.08;1.88;;;8.90;85.90;;;;;;5113318;28;20412;-69
2023/04/17 03:38:44;;;;;;;2.08;1.52;;;9.00;85.80;;;;;;5113377;28;20096;-69
2023/04/17 03:41:10;;;;;;;3.88;2.10;;;9.00;85.90;;;;;;5113507;28;20050;-69
2023/04/17 03:43:35;;;;;;;3.97;1.90;;;8.90;85.90;;;;;;5113137;28;20145;-69
2023/04/17 03:46:01;;;;;;;2.90;1.70;;;8.90;86.00;;;;;;5113121;28;20057;-70
2023/04/17 03:48:27;;;;;;;3.97;2.00;;;8.90;86.00;;;;;;5113180;28;20139;-69
2023/04/17 03:50:52;;;;;;;2.72;1.58;;;8.90;86.10;;;;;;5113098;28;20050;-69
2023/04/17 03:53:18;;;;;;;3.70;1.80;;;8.90;86.10;;;;;;5112963;28;20481;-70
2023/04/17 03:55:44;;;;;;;3.03;1.75;;;8.90;86.10;;;;;;5113061;28;20043;-69
2023/04/17 03:58:10;;;;;;;2.95;1.75;;;8.80;86.00;;;;;;5113422;28;20538;-70
2023/04/17 04:00:36;;;;;;;2.25;1.42;;;8.90;86.00;;;;;;5112747;28;20552;-69
2023/04/17 04:03:02;;;;;;;2.72;1.60;;;8.90;86.00;;;;;;5113360;28;20123;-69
2023/04/17 04:05:28;;;;;;;4.25;1.98;;;8.90;86.00;;;;;;5113113;28;20160;-69
2023/04/17 04:07:54;;;;;;;3.75;2.13;;;8.90;86.00;;;;;;5094124;28;20115;-69
2023/04/17 04:10:20;;;;;;;2.72;1.73;;;8.90;86.00;;;;;;5112994;28;20124;-69
2023/04/17 04:12:46;;;;;;;4.60;2.00;;;8.90;86.10;;;;;;5113317;28;20424;-69
2023/04/17 04:15:12;;;;;;;3.10;1.70;;;8.80;86.10;;;;;;5113317;28;20043;-69
2023/04/17 04:17:37;;;;;;;3.40;1.95;;;8.80;86.00;;;;;;5113136;28;20512;-69
2023/04/17 04:20:06;;;;;;;3.40;1.83;;;8.80;86.10;;;;;;5092729;28;20051;-69
2023/04/17 04:22:33;;;;;;;3.95;2.10;;;8.80;86.10;;;;;;5112599;28;20044;-69
2023/04/17 04:24:59;;;;;;;2.85;1.73;;;8.80;86.20;;;;;;5113131;28;20035;-70
2023/04/17 04:27:26;;;;;;;4.38;2.20;;;8.80;86.20;;;;;;5112488;28;20504;-69
2023/04/17 04:29:52;;;;;;;2.92;1.80;;;8.80;86.20;;;;;;5112421;28;20438;-69
2023/04/17 04:32:18;;;;;;;3.33;1.80;;;8.80;86.20;;;;;;5113247;28;20043;-69
2023/04/17 04:34:43;;;;;;;3.42;1.90;;;8.70;86.20;;;;;;5094260;28;20047;-70
2023/04/17 04:37:14;;;;;;;4.50;1.90;;;8.70;86.20;;;;;;5092919;28;20047;-69
2023/04/17 04:39:40;;;;;;;4.20;2.00;;;8.70;86.30;;;;;;5094787;28;20051;-69
2023/04/17 04:42:08;;;;;;;4.55;2.08;;;8.70;86.20;;;;;;5112503;28;20447;-70
2023/04/17 04:44:36;;;;;;;2.78;1.65;;;8.80;86.30;;;;;;5094669;28;20523;-70
2023/04/17 04:47:01;;;;;;;3.63;1.90;;;8.80;86.30;;;;;;5112726;28;20157;-70
2023/04/17 04:49:27;;;;;;;4.00;2.10;;;8.70;86.30;;;;;;5112898;28;20063;-69
2023/04/17 04:51:53;;;;;;;3.88;2.08;;;8.70;86.20;;;;;;5112493;28;20378;-69
2023/04/17 04:54:18;;;;;;;3.05;1.80;;;8.70;86.30;;;;;;5112767;28;20105;-69
2023/04/17 04:56:44;;;;;;;3.17;1.85;;;8.70;86.30;;;;;;5112472;28;20044;-69
2023/04/17 04:59:10;;;;;;;3.22;1.90;;;8.70;86.40;;;;;;5060712;28;20044;-69
2023/04/17 05:01:38;;;;;;;3.95;1.80;;;8.70;86.30;;;;;;5112267;28;20096;-68
2023/04/17 05:04:04;;;;;;;4.22;2.10;;;8.80;86.40;;;;;;5112418;28;20040;-68
2023/04/17 05:06:30;;;;;;;3.15;1.63;;;8.70;86.30;;;;;;5092455;28;20036;-68
2023/04/17 05:08:55;;;;;;;4.05;1.83;;;8.70;86.30;;;;;;5112799;28;20036;-68
2023/04/17 05:11:21;;;;;;;3.83;1.95;;;8.70;86.30;;;;;;5112157;28;20512;-68
2023/04/17 05:13:47;;;;;;;4.10;2.28;;;8.80;86.40;;;;;;5112261;28;20043;-68
2023/04/17 05:16:12;;;;;;;3.25;1.80;;;8.80;86.30;;;;;;5112206;28;20072;-68
2023/04/17 05:18:38;;;;;;;3.40;1.80;;;8.90;86.40;;;;;;5112182;28;20065;-68
2023/04/17 05:21:04;;;;;;;3.45;1.70;;;8.90;86.40;;;;;;5112045;28;20534;-68
2023/04/17 05:23:29;;;;;;;2.95;1.65;;;8.70;86.30;;;;;;5112102;28;20047;-68
2023/04/17 05:25:55;;;;;;;4.15;2.17;;;8.80;86.40;;;;;;5094214;28;20552;-68
2023/04/17 05:28:21;;;;;;;3.05;1.67;;;8.80;86.40;;;;;;5092507;28;20040;-68
2023/04/17 05:30:46;;;;;;;3.88;1.88;;;8.90;86.50;;;;;;5112289;28;20416;-69
2023/04/17 05:33:12;;;;;;;3.28;1.60;;;8.90;86.40;;;;;;5112584;28;20068;-69
2023/04/17 05:35:38;;;;;;;2.95;1.75;;;8.90;86.40;;;;;;5076890;28;20066;-69
2023/04/17 05:38:04;;;;;;;3.50;1.92;;;8.90;86.40;;;;;;5091936;28;20040;-69
2023/04/17 05:40:29;;;;;;;4.13;1.90;;;8.80;86.30;;;;;;5113521;28;20093;-69
2023/04/17 05:42:55;;;;;;;2.58;1.38;;;8.90;86.40;;;;;;5115410;28;20035;-69
2023/04/17 05:45:21;;;;;;;3.42;1.80;;;8.80;86.40;;;;;;5115344;28;20393;-69
2023/04/17 05:47:46;;;;;;;3.10;1.50;;;8.90;86.40;;;;;;5115252;28;20036;-68
2023/04/17 05:50:12;;;;;;;3.83;2.22;;;8.90;86.40;;;;;;5115254;28;20494;-69
2023/04/17 05:52:38;;;;;;;3.42;1.67;;;9.00;86.30;;;;;;5115269;28;20050;-69
2023/04/17 05:55:04;;;;;;;3.83;2.00;;;8.90;86.30;;;;;;5115270;28;20047;-69
2023/04/17 05:57:30;;;;;;;3.42;1.90;;;8.90;86.30;;;;;;5115549;28;20047;-69
2023/04/17 05:59:55;;;;;;;4.20;2.10;;;8.90;86.30;;;;;;5097062;28;20059;-68
2023/04/17 06:02:21;;;;;;;3.95;1.90;;;8.90;86.40;;;;;;5115400;28;20461;-69
2023/04/17 06:04:47;;;;;;;3.42;1.63;;;8.90;86.40;;;;;;5115137;28;20089;-69
2023/04/17 06:07:13;;;;;;;3.78;1.70;;;9.00;86.40;;;;;;5115565;28;20036;-69
2023/04/17 06:09:39;;;;;;;2.92;1.50;;;9.00;86.40;;;;;;5115482;28;20126;-69
2023/04/17 06:12:05;;;;;;;3.97;2.05;;;9.10;86.40;;;;;;5115289;28;20055;-69
2023/04/17 06:14:31;;;;;;;3.90;1.98;;;9.10;86.30;;;;;;5115390;28;20043;-69
2023/04/17 06:16:57;;;;;;;3.60;1.95;;;9.10;86.20;;;;;;5115288;28;20070;-70
2023/04/17 06:19:23;;;;;;;3.97;2.20;;;9.10;86.20;;;;;;5115074;28;20032;-70
2023/04/17 06:21:48;;;;;;;3.72;2.00;;;9.10;86.20;;;;;;5095395;28;20048;-70
2023/04/17 06:24:15;;;;;;;4.05;2.10;;;9.20;86.20;;;;;;5115056;28;20085;-70
2023/04/17 06:26:40;;;;;;;3.65;2.00;;;9.20;86.20;;;;;;5114794;28;20549;-70
2023/04/17 06:29:07;;;;;;;4.15;2.20;;;9.10;86.10;;;;;;5095559;28;20032;-70
2023/04/17 06:31:33;;;;;;;3.63;1.92;;;9.20;86.20;;;;;;5095042;28;20051;-70
2023/04/17 06:33:59;;;;;;;3.58;1.88;;;9.20;86.20;;;;;;5114555;28;20039;-71
2023/04/17 06:36:25;;;;;;;4.05;2.20;;;9.20;86.20;;;;;;5114481;28;20142;-71
2023/04/17 06:38:51;;;;;;;5.03;2.40;;;9.20;86.20;;;;;;5114576;28;20039;-72
2023/04/17 06:41:17;;;;;;;3.80;2.10;;;9.20;86.20;;;;;;5114585;28;20509;-71
2023/04/17 06:43:42;;;;;;;3.63;2.10;;;9.20;86.20;;;;;;5114375;28;20043;-71
2023/04/17 06:46:09;;;;;;;4.43;2.25;;;9.20;86.20;;;;;;5095137;28;20595;-70
2023/04/17 06:48:34;;;;;;;4.60;2.40;;;9.20;86.30;;;;;;5094707;28;20099;-70
2023/04/17 06:51:00;;;;;;;3.88;2.10;;;9.10;86.30;;;;;;5114580;28;20051;-70
2023/04/17 06:53:26;;;;;;;3.80;1.90;;;9.20;86.30;;;;;;5114675;28;20040;-69
2023/04/17 06:55:53;;;;;;;3.10;1.85;;;9.20;86.30;;;;;;5114276;28;20047;-70
2023/04/17 06:58:18;;;;;;;3.15;1.58;;;9.20;86.30;;;;;;5062564;28;20126;-70
2023/04/17 07:00:44;;;;;;;3.22;2.08;;;9.20;86.20;;;;;;5095362;28;20070;-70
2023/04/17 07:03:11;;;;;;;3.00;1.70;;;9.20;86.20;;;;;;5114048;28;20480;-70
2023/04/17 07:05:36;;;;;;;3.75;2.10;;;9.30;86.30;;;;;;5114198;28;20476;-70
2023/04/17 07:08:02;;;;;;;3.50;1.73;;;9.30;86.20;;;;;;5114445;28;20043;-70
2023/04/17 07:10:28;;;;;;;3.60;2.10;;;9.30;86.20;;;;;;5113899;28;20044;-71
2023/04/17 07:12:54;;;;;;;3.70;2.17;;;9.30;86.20;;;;;;5113847;28;20544;-71
2023/04/17 07:15:19;;;;;;;3.88;2.13;;;9.30;86.20;;;;;;5095691;28;20042;-71
2023/04/17 07:17:45;;;;;;;4.60;2.22;;;9.30;86.20;;;;;;5113667;28;20142;-70
2023/04/17 07:20:11;;;;;;;4.07;2.20;;;9.40;86.20;;;;;;5113788;28;20035;-72
2023/04/17 07:22:37;;;;;;;4.75;2.58;;;9.50;86.10;;;;;;5113586;28;20108;-72
2023/04/17 07:25:03;;;;;;;4.70;2.30;;;9.40;86.00;;;;;;5113701;28;20586;-72
2023/04/17 07:27:29;;;;;;;4.32;2.25;;;9.50;86.00;;;;;;5077712;28;20093;-71
2023/04/17 07:29:55;;;;;;;5.22;2.90;;;9.50;86.00;;;;;;5093822;28;20089;-71
2023/04/17 07:32:23;;;;;;;4.68;2.50;;;9.50;86.00;;;;;;5095020;28;20039;-71
2023/04/17 07:34:49;;;;;;;4.63;2.47;;;9.50;85.90;;;;;;5095659;28;20039;-71
2023/04/17 07:37:15;;;;;;;5.70;2.92;;;9.60;85.90;;;;;;5113673;28;20512;-72
2023/04/17 07:39:41;;;;;;;4.78;2.60;;;9.70;85.80;;;;;;5093509;28;20044;-70
2023/04/17 07:42:07;;;;;;;4.68;2.83;;;9.80;85.60;;;;;;5113968;28;20130;-71
2023/04/17 07:44:34;;;;;;;4.97;2.67;;;9.80;86.20;;;;;;5113519;28;20043;-70
2023/04/17 07:47:00;;;;;;;4.70;2.63;;;9.90;85.50;;;;;;5093748;28;20032;-71
2023/04/17 07:49:25;;;;;;;5.70;2.75;;;9.90;85.40;;;;;;5113841;28;20035;-71
2023/04/17 07:51:51;;;;;;;4.60;2.45;;;9.90;85.30;;;;;;5113398;28;20401;-71
2023/04/17 07:54:17;;;;;;;5.07;2.70;;;9.90;85.20;;;;;;5113719;28;20081;-71
2023/04/17 07:56:45;;;;;;;5.75;3.00;;;10.10;85.30;;;;;;5093475;28;20076;-71
2023/04/17 07:59:11;;;;;;;4.95;2.65;;;10.00;85.10;;;;;;5113311;28;20418;-71
2023/04/17 08:01:37;;;;;;;5.35;2.85;;;10.10;85.10;;;;;;5112593;28;20124;-71
2023/04/17 08:04:03;;;;;;;4.80;2.60;;;10.10;85.10;;;;;;5112475;28;20081;-72
2023/04/17 08:06:28;;;;;;;4.10;2.33;;;10.10;85.10;;;;;;5113157;28;20122;-71
2023/04/17 08:08:54;;;;;;;4.53;2.38;;;10.20;85.00;;;;;;5113129;28;20042;-70
2023/04/17 08:11:20;;;;;;;5.15;2.75;;;10.20;85.00;;;;;;5113001;28;20070;-69
2023/04/17 08:13:45;;;;;;;4.45;2.45;;;10.30;85.00;;;;;;5095134;28;20039;-70
2023/04/17 08:16:11;;;;;;;4.47;2.65;;;10.20;85.00;;;;;;5113038;28;20067;-70
2023/04/17 08:18:38;;;;;;;5.90;3.17;;;10.20;85.00;;;;;;5113128;28;20148;-70
2023/04/17 08:21:04;;;;;;;5.15;2.90;;;10.30;85.00;;;;;;5113398;28;20048;-71
2023/04/17 08:23:32;;;;;;;4.63;2.80;;;10.30;85.00;;;;;;5078090;28;20462;-71
2023/04/17 08:25:58;;;;;;;4.80;2.70;;;10.50;85.10;;;;;;5112996;28;20122;-69
2023/04/17 08:28:24;;;;;;;5.38;3.00;;;10.30;85.00;;;;;;5113060;28;20035;-70
2023/04/17 08:30:50;;;;;;;5.20;2.80;;;10.50;84.90;;;;;;5112848;28;20474;-71
2023/04/17 08:33:17;;;;;;;5.00;2.67;;;10.50;84.80;;;;;;5112964;28;20047;-71
2023/04/17 08:35:43;;;;;;;5.65;3.35;;;10.50;84.80;;;;;;5112694;28;20115;-71
2023/04/17 08:38:12;;;;;;;5.18;2.97;;;10.50;84.80;;;;;;5113097;28;20044;-70
2023/04/17 08:40:41;;;;;;;5.50;2.65;;;10.60;84.80;;;;;;5094813;28;20093;-70
2023/04/17 08:43:14;;;;;;;4.68;2.63;;;10.70;84.70;;;;;;5095140;28;20131;-70
2023/04/17 08:45:51;;;;;;;4.57;2.70;;;10.90;84.60;;;;;;5112846;28;20089;-69
2023/04/17 08:48:17;;;;;;;5.07;2.78;;;11.00;84.40;;;;;;5093504;28;20398;-70
2023/04/17 08:50:47;;;;;;;5.50;3.10;;;11.10;84.20;;;;;;5076171;28;20036;-70
2023/04/17 08:53:12;;;;;;;5.45;3.10;;;11.30;84.50;;;;;;5113072;28;20081;-70
2023/04/17 08:55:38;;;;;;;4.63;2.67;;;11.50;83.50;;;;;;5112499;28;20040;-69
2023/04/17 08:58:04;;;;;;;5.15;3.00;;;11.70;83.10;;;;;;5112534;28;20055;-70
2023/04/17 09:00:32;;;;;;;4.65;2.90;;;11.90;82.80;;;;;;5112859;28;20100;-69
2023/04/17 09:03:00;;;;;;;4.47;2.75;;;12.00;82.50;;;;;;5077337;28;20043;-71
2023/04/17 09:05:44;;;;;;;4.82;2.90;;;12.20;82.10;;;;;;5077176;28;20039;-71
2023/04/17 09:08:15;;;;;;;4.43;2.55;;;12.50;82.10;;;;;;5108266;28;20553;-69
2023/04/17 09:10:44;;;;;;;5.55;3.20;;;12.50;81.90;;;;;;5108680;28;20489;-69
2023/04/17 09:13:14;;;;;;;4.43;2.75;;;12.60;81.60;;;;;;5112214;28;20047;-69
2023/04/17 09:15:40;;;;;;;5.15;3.10;;;12.70;81.60;;;;;;5115473;28;20032;-69
2023/04/17 09:18:22;;;;;;;6.07;3.50;;;12.80;81.50;;;;;;5096775;28;20072;-70
2023/04/17 09:20:50;;;;;;;4.50;3.03;;;12.80;81.40;;;;;;5115783;28;20035;-70
2023/04/17 09:23:16;;;;;;;6.53;3.28;;;12.80;81.40;;;;;;5115771;28;20039;-69
2023/04/17 09:25:42;;;;;;;5.53;3.20;;;12.80;81.60;;;;;;5097521;28;20066;-69
2023/04/17 09:28:11;;;;;;;5.53;3.25;;;12.80;81.70;;;;;;5115470;28;20063;-69
2023/04/17 09:30:38;;;;;;;5.95;3.30;;;12.80;81.70;;;;;;5096973;28;20040;-69
2023/04/17 09:33:05;;;;;;;5.13;3.03;;;12.90;81.80;;;;;;5115975;28;20054;-69
2023/04/17 09:35:31;;;;;;;5.28;3.33;;;12.80;81.70;;;;;;5115710;28;20042;-68
2023/04/17 09:37:58;;;;;;;5.13;2.90;;;12.80;81.80;;;;;;5115479;28;20144;-69
2023/04/17 09:40:25;;;;;;;5.00;2.90;;;12.80;81.80;;;;;;5115849;28;20035;-69
2023/04/17 09:42:54;;;;;;;4.18;2.78;;;13.00;81.90;;;;;;5095710;28;20048;-69
2023/04/17 09:45:21;;;;;;;4.13;2.72;;;12.80;81.70;;;;;;5095434;28;20044;-70
2023/04/17 09:47:47;;;;;;;5.82;3.22;;;12.90;81.80;;;;;;5115127;28;20512;-69
2023/04/17 09:50:20;;;;;;;7.20;3.17;;;13.00;81.70;;;;;;5080131;28;20040;-69
2023/04/17 09:52:51;;;;;;;4.88;2.75;;;13.00;81.50;;;;;;5115320;28;20036;-70
2023/04/17 09:55:20;;;;;;;4.63;2.58;;;13.10;81.40;;;;;;5115333;28;20063;-69
2023/04/17 09:57:50;;;;;;;4.88;2.83;;;13.20;81.40;;;;;;5114974;28;20382;-70
2023/04/17 10:00:17;;;;;;;4.82;3.00;;;13.30;81.20;;;;;;5096559;28;20145;-70
2023/04/17 10:02:44;;;;;;;4.65;2.90;;;13.30;80.90;;;;;;5114907;28;20047;-68
2023/04/17 10:05:12;;;;;;;3.80;2.60;;;13.40;80.80;;;;;;5115067;28;20043;-68
2023/04/17 10:07:38;;;;;;;4.80;2.75;;;13.40;80.70;;;;;;5115077;28;20076;-68
2023/04/17 10:10:08;;;;;;;4.70;2.78;;;13.50;80.60;;;;;;5115594;28;20039;-68
2023/04/17 10:12:36;;;;;;;5.50;2.90;;;13.50;80.60;;;;;;5114844;28;20055;-68
2023/04/17 10:15:06;;;;;;;5.32;2.85;;;13.50;80.50;;;;;;5114738;28;20477;-68
2023/04/17 10:17:33;;;;;;;4.03;2.60;;;13.60;80.50;;;;;;5115093;28;20035;-69
2023/04/17 10:20:38;;;;;;;4.68;2.80;;;13.60;80.40;;;;;;5114843;28;20039;-69
2023/04/17 10:23:25;;;;;;;5.05;2.60;;;13.70;80.10;;;;;;5097131;28;20493;-69
2023/04/17 10:26:30;;;;;;;4.25;2.70;;;13.70;80.00;;;;;;5113924;28;20047;-69
2023/04/17 10:28:56;;;;;;;3.78;2.30;;;13.80;80.00;;;;;;5098847;28;20040;-69
2023/04/17 10:31:42;;;;;;;4.50;2.70;;;13.90;79.90;;;;;;5114887;28;20057;-68
2023/04/17 10:34:40;;;;;;;4.05;2.33;;;13.90;79.80;;;;;;5114389;28;20478;-69
2023/04/17 10:37:05;;;;;;;4.40;2.80;;;13.90;79.50;;;;;;5114399;28;20043;-69
2023/04/17 10:39:50;;;;;;;5.50;2.95;;;14.00;79.60;;;;;;5114969;28;20382;-69
2023/04/17 10:42:19;;;;;;;3.72;2.50;;;14.20;79.10;;;;;;5114935;28;20039;-69
2023/04/17 10:44:45;;;;;;;3.58;2.38;;;14.40;78.90;;;;;;5115021;28;20040;-69
2023/04/17 10:47:14;;;;;;;4.30;2.58;;;14.60;78.30;;;;;;5114847;28;20074;-68
2023/04/17 10:49:59;;;;;;;3.30;2.38;;;14.70;77.90;;;;;;5114378;28;20401;-69
2023/04/17 10:52:37;;;;;;;3.42;2.25;;;14.80;77.80;;;;;;5114236;28;20039;-69
2023/04/17 10:55:06;;;;;;;3.70;2.58;;;14.80;77.70;;;;;;5114398;28;20086;-70
2023/04/17 10:58:09;;;;;;;5.35;2.47;;;14.80;77.50;;;;;;5114616;28;20119;-70
2023/04/17 11:00:37;;;;;;;3.85;2.30;;;14.80;77.50;;;;;;5113921;28;20044;-69
2023/04/17 11:03:04;;;;;;;3.65;2.20;;;14.70;77.70;;;;;;5114465;28;20048;-70
2023/04/17 11:05:30;;;;;;;3.38;2.22;;;14.80;77.70;;;;;;5114492;28;20085;-69
2023/04/17 11:07:57;;;;;;;3.80;2.47;;;14.80;77.60;;;;;;5113945;28;20454;-69
2023/04/17 11:10:23;;;;;;;3.50;2.30;;;14.90;77.40;;;;;;5094783;28;20044;-69
2023/04/17 11:12:52;;;;;;;3.25;2.08;;;15.00;77.30;;;;;;5114591;28;20481;-70
2023/04/17 11:15:34;;;;;;;4.47;2.65;;;15.10;76.90;;;;;;5096201;28;20044;-70
2023/04/17 11:18:01;;;;;;;4.30;2.55;;;15.20;76.70;;;;;;5114380;28;20094;-70
2023/04/17 11:20:29;;;;;;;3.53;2.25;;;15.30;76.50;;;;;;5094467;28;20040;-70
2023/04/17 11:22:56;;;;;;;3.97;2.40;;;15.50;76.30;;;;;;5094691;28;20044;-70
2023/04/17 11:25:24;;;;;;;4.00;2.22;;;15.80;75.80;;;;;;5096642;28;20072;-70
2023/04/17 11:27:50;;;;;;;4.50;2.70;;;15.90;75.00;;;;;;5113832;28;20035;-70
2023/04/17 11:30:28;;;;;;;4.28;2.70;;;15.90;75.00;;;;;;5114254;28;20040;-70
2023/04/17 11:32:57;;;;;;;5.82;3.10;;;15.80;74.70;;;;;;5093787;28;20062;-71
2023/04/17 11:35:28;;;;;;;4.18;2.70;;;15.90;74.70;;;;;;5093660;28;20123;-69
2023/04/17 11:38:10;;;;;;;4.45;2.75;;;15.90;74.60;;;;;;5108835;28;20122;-70
2023/04/17 11:40:42;;;;;;;4.80;2.70;;;16.00;74.50;;;;;;5113353;28;20503;-70
2023/04/17 11:43:08;;;;;;;4.25;2.35;;;16.10;74.40;;;;;;5113619;28;20079;-69
2023/04/17 11:45:36;;;;;;;3.40;2.10;;;16.20;74.30;;;;;;5095125;28;20063;-69
2023/04/17 11:48:02;;;;;;;3.67;2.20;;;16.30;74.10;;;;;;5093982;28;20078;-69
2023/04/17 11:50:30;;;;;;;2.80;2.00;;;16.50;73.70;;;;;;5113425;28;20036;-70
2023/04/17 11:52:58;;;;;;;3.30;1.95;;;16.60;73.40;;;;;;5091275;28;20044;-69
2023/04/17 11:55:29;;;;;;;3.72;2.28;;;16.70;73.10;;;;;;5113309;28;20039;-70
2023/04/17 11:57:56;;;;;;;3.47;2.13;;;16.80;72.90;;;;;;5113673;28;20065;-72
2023/04/17 12:00:26;;;;;;;4.15;2.10;;;16.80;72.80;;;;;;5113468;28;20405;-73
2023/04/17 12:02:52;;;;;;;3.67;2.28;;;16.80;72.80;;;;;;5113019;28;20055;-70
2023/04/17 12:05:18;;;;;;;3.83;2.40;;;16.80;72.80;;;;;;5113485;28;20032;-71
2023/04/17 12:07:44;;;;;;;5.15;2.58;;;16.80;72.80;;;;;;5113222;28;20485;-70
2023/04/17 12:10:10;;;;;;;4.75;2.55;;;16.80;72.70;;;;;;5094268;28;20043;-71
2023/04/17 12:12:36;;;;;;;3.63;2.25;;;16.80;72.80;;;;;;5112920;28;20489;-70
2023/04/17 12:15:02;;;;;;;3.00;2.20;;;16.70;72.70;;;;;;5112918;28;20058;-71
2023/04/17 12:17:28;;;;;;;4.50;2.53;;;16.80;72.70;;;;;;5112873;28;20122;-72
2023/04/17 12:19:54;;;;;;;3.70;2.40;;;16.90;72.50;;;;;;5113026;28;20067;-71
2023/04/17 12:22:20;;;;;;;4.30;2.53;;;16.90;72.10;;;;;;5112755;28;20071;-69
2023/04/17 12:24:46;;;;;;;4.07;2.53;;;17.10;71.90;;;;;;5112835;28;20533;-70
2023/04/17 12:27:11;;;;;;;4.22;2.60;;;17.10;71.60;;;;;;5112835;28;20028;-69
2023/04/17 12:29:37;;;;;;;3.30;2.22;;;17.10;71.30;;;;;;5112831;28;20050;-69
2023/04/17 12:32:02;;;;;;;3.97;2.42;;;17.10;71.40;;;;;;5094961;28;20126;-69
2023/04/17 12:34:28;;;;;;;3.25;2.20;;;17.30;71.20;;;;;;5112869;28;20493;-69
2023/04/17 12:36:54;;;;;;;4.13;2.60;;;17.30;71.00;;;;;;5113124;28;20043;-69
2023/04/17 12:39:19;;;;;;;3.95;2.35;;;17.40;70.80;;;;;;5112872;28;20043;-69
2023/04/17 12:41:45;;;;;;;3.85;2.42;;;17.40;70.50;;;;;;5093397;28;20047;-69
2023/04/17 12:44:10;;;;;;;2.50;1.80;;;17.50;70.40;;;;;;5112449;28;20131;-69
2023/04/17 12:46:36;;;;;;;3.38;2.05;;;17.50;70.40;;;;;;5112472;28;20035;-70
2023/04/17 12:49:02;;;;;;;3.25;2.03;;;17.50;70.20;;;;;;5112959;28;20481;-68
2023/04/17 12:51:27;;;;;;;3.97;2.20;;;17.40;70.20;;;;;;5115859;28;20055;-68
2023/04/17 12:53:54;;;;;;;3.45;2.35;;;17.30;70.30;;;;;;5116251;28;20130;-69